createdAt,value
2022-08-29T00:02:34.626Z,24.3
2022-08-29T00:08:18.715Z,24.3
2022-08-29T00:13:59.316Z,24.4
2022-08-29T00:19:44.346Z,24.3
2022-08-29T00:25:10.936Z,24.3
2022-08-29T00:30:35.931Z,24.3
2022-08-29T00:36:14.800Z,24.3
2022-08-29T00:41:42.694Z,24.3
2022-08-29T00:47:05.094Z,24.3
2022-08-29T00:52:26.761Z,24.3
2022-08-29T00:57:31.340Z,24.3
2022-08-29T01:03:13.855Z,24.3
2022-08-29T01:08:57.502Z,24.3
2022-08-29T01:14:45.889Z,24.3
2022-08-29T01:20:07.328Z,24.4
2022-08-29T01:25:28.607Z,24.3
2022-08-29T01:31:05.934Z,24.3
2022-08-29T01:37:17.581Z,24.3
2022-08-29T01:42:57.955Z,24.3
2022-08-29T01:48:38.865Z,24.4
2022-08-29T01:54:15.261Z,24.3
2022-08-29T01:59:56.420Z,24.3
2022-08-29T02:05:20.055Z,24.3
2022-08-29T02:10:57.561Z,24.3
2022-08-29T02:16:18.491Z,24.3
2022-08-29T02:21:55.330Z,24.3
2022-08-29T02:27:59.670Z,24.3
2022-08-29T02:33:11.228Z,24.4
2022-08-29T02:38:41.699Z,24.4
2022-08-29T02:44:17.834Z,24.3
2022-08-29T02:50:09.585Z,24.3
2022-08-29T02:55:34.465Z,24.3
2022-08-29T03:00:59.123Z,24.3
2022-08-29T03:06:20.948Z,24.3
2022-08-29T03:11:49.020Z,24.3
2022-08-29T03:17:27.679Z,24.3
2022-08-29T03:23:04.502Z,24.3
2022-08-29T03:28:50.543Z,24.3
2022-08-29T03:34:00.071Z,24.2
2022-08-29T03:39:23.134Z,24.1
2022-08-29T03:45:02.176Z,24.1
2022-08-29T03:50:39.125Z,24
2022-08-29T03:56:18.154Z,23.9
2022-08-29T04:01:55.428Z,23.9
2022-08-29T04:07:37.172Z,23.8
2022-08-29T04:13:13.362Z,23.8
2022-08-29T04:19:00.870Z,23.7
2022-08-29T04:24:38.643Z,23.6
2022-08-29T04:30:47.510Z,23.6
2022-08-29T04:36:32.053Z,23.5
2022-08-29T04:42:09.818Z,23.5
2022-08-29T04:47:49.646Z,23.4
2022-08-29T04:53:32.064Z,23.4
2022-08-29T04:59:02.271Z,23.4
2022-08-29T05:04:31.217Z,23.3
2022-08-29T05:10:17.751Z,23.3
2022-08-29T05:15:55.249Z,23.3
2022-08-29T05:21:42.253Z,23.2
2022-08-29T05:27:20.044Z,23.2
2022-08-29T05:33:09.668Z,23.2
2022-08-29T05:38:49.993Z,23.2
2022-08-29T05:44:32.884Z,23.2
2022-08-29T05:50:19.037Z,23.2
2022-08-29T05:55:56.893Z,23.2
2022-08-29T06:01:36.282Z,23.3
2022-08-29T06:07:17.476Z,23.3
2022-08-29T06:12:58.120Z,23.3
2022-08-29T06:18:43.402Z,23.3
2022-08-29T06:24:23.063Z,23.3
2022-08-29T06:30:36.890Z,23.4
2022-08-29T06:36:15.408Z,23.4
2022-08-29T06:41:52.828Z,23.4
2022-08-29T06:47:33.142Z,23.4
2022-08-29T06:53:43.835Z,23.5
2022-08-29T06:59:31.678Z,23.5
2022-08-29T07:05:28.337Z,23.5
2022-08-29T07:11:29.626Z,23.5
2022-08-29T07:17:10.670Z,23.6
2022-08-29T07:23:05.396Z,23.6
2022-08-29T07:28:50.469Z,23.6
2022-08-29T07:34:44.871Z,23.6
2022-08-29T07:40:37.157Z,23.6
2022-08-29T07:46:26.213Z,23.6
2022-08-29T07:52:18.234Z,23.7
2022-08-29T07:58:00.161Z,23.7
2022-08-29T08:03:26.557Z,23.7
2022-08-29T08:09:21.783Z,23.7
2022-08-29T08:15:10.159Z,23.8
2022-08-29T08:20:48.271Z,23.8
2022-08-29T08:26:37.855Z,23.8
2022-08-29T08:32:17.516Z,23.8
2022-08-29T08:37:58.267Z,23.8
2022-08-29T08:43:43.162Z,23.8
2022-08-29T08:49:06.849Z,23.9
2022-08-29T08:54:48.037Z,23.8
2022-08-29T09:00:09.822Z,23.9
2022-08-29T09:05:50.173Z,23.9
2022-08-29T09:11:15.732Z,23.9
2022-08-29T09:16:58.943Z,23.9
2022-08-29T09:23:23.444Z,23.9
2022-08-29T09:29:05.999Z,23.9
2022-08-29T09:35:13.597Z,23.9
2022-08-29T09:40:55.882Z,24
2022-08-29T09:46:36.624Z,23.9
2022-08-29T09:52:14.477Z,23.9
2022-08-29T09:58:01.720Z,24
2022-08-29T10:03:56.128Z,24
2022-08-29T10:09:38.354Z,24
2022-08-29T10:15:09.545Z,24
2022-08-29T10:21:17.810Z,24
2022-08-29T10:26:56.017Z,24
2022-08-29T10:32:19.120Z,24.1
2022-08-29T10:37:51.385Z,24.1
2022-08-29T10:43:42.070Z,24.1
2022-08-29T10:49:20.493Z,24.1
2022-08-29T10:55:15.991Z,24.1
2022-08-29T11:00:59.335Z,24.1
2022-08-29T11:06:39.045Z,24.1
2022-08-29T11:12:17.697Z,24.1
2022-08-29T11:17:57.769Z,24.1
2022-08-29T11:23:41.093Z,24.1
2022-08-29T11:29:25.741Z,24.1
2022-08-29T11:35:05.725Z,24.1
2022-08-29T11:41:28.877Z,24.2
2022-08-29T11:47:57.755Z,24.1
2022-08-29T11:53:36.436Z,24.1
2022-08-29T11:59:20.443Z,24.2
2022-08-29T12:05:16.997Z,24.2
2022-08-29T12:11:25.577Z,24.2
2022-08-29T12:16:52.957Z,24.2
2022-08-29T12:22:56.361Z,24.2
2022-08-29T12:29:16.639Z,24.2
2022-08-29T12:35:40.709Z,24.2
2022-08-29T12:41:32.695Z,24.3
2022-08-29T12:46:40.516Z,24.2
2022-08-29T12:52:17.840Z,24.3
2022-08-29T12:57:44.135Z,24.3
2022-08-29T13:03:31.806Z,24.2
2022-08-29T13:09:10.143Z,24.2
2022-08-29T13:14:54.477Z,24.3
2022-08-29T13:21:03.872Z,24.3
2022-08-29T13:26:49.923Z,24.3
2022-08-29T13:32:21.347Z,24.3
2022-08-29T13:38:11.504Z,24.3
2022-08-29T13:43:56.086Z,24.3
2022-08-29T13:49:34.796Z,24.3
2022-08-29T13:55:17.385Z,24.3
2022-08-29T14:07:57.548Z,24.3
2022-08-29T14:13:40.740Z,24.3
2022-08-29T14:19:31.032Z,24.3
2022-08-29T14:24:55.767Z,24.3
2022-08-29T14:30:47.673Z,24.3
2022-08-29T14:36:56.841Z,24.3
2022-08-29T14:42:39.227Z,24.3
2022-08-29T14:48:18.813Z,24.3
2022-08-29T14:54:10.704Z,24.3
2022-08-29T15:00:20.251Z,24.2
2022-08-29T15:05:46.833Z,24.3
2022-08-29T15:11:34.821Z,24.2
2022-08-29T15:17:12.630Z,24.3
2022-08-29T15:24:25.226Z,24.3
2022-08-29T15:30:11.652Z,24.2
2022-08-29T15:35:51.810Z,24.3
2022-08-29T15:41:37.804Z,24.3
2022-08-29T15:47:28.442Z,24.3
2022-08-29T15:53:07.831Z,24.3
2022-08-29T15:58:57.973Z,24.3
2022-08-29T16:05:04.457Z,24.3
2022-08-29T16:11:01.901Z,24.2
